JM-0003 weather

Tulloch Airstrip
Bog Walk, Saint Catherine, Jamaica

Public forecast

Using degrees Celsius for public forecast. Weather courtesy of forecast.io.

METAR (pilot weather report)

Closest report is Norman Manley International Airport, 15.3 nm (28.3 km) SE. Retrieved 2019/02/15 21:00 UTC (35 minutes ago):

MKJP 152100Z 12010KT 9999 FEW022 28/22 Q1011

TAF (pilot weather forecast)

Closest forecast is Norman Manley International Airport, 15.3 nm (28.3 km) SE. Retrieved 2019/02/15 18:14 UTC (3 hours ago):

TAF MKJP 151715Z 1518/1618 16010KT 9999 SCT018 SCT032 BECMG 1600/1602 34005KT FEW022 BECMG 1614/1616 14013KT SCT018